INFORMACIÓN METAR y TAF

METAR FOR WAMM
ADDS - METARS form results

(0921 UTC 27 October 2020)
Data provider http://aviationweather.gov/metar/data/
 
METAR text: WAMM 270900Z VRB01KT 9999 FEW021 30/23 Q1008 NOSIG
Conditions at: WAMM (MENADO/SAM RATUL, ID) observed 0900 UTC 27 October 2020
Temperature: 30.0°C (86°F)
Dewpoint: 23.0°C (73°F) [RH = 66%]
Pressure (altimeter): 29.76 inches Hg (1008.0 mb)
Winds: variable direction winds at 1 MPH (1 knots; 0.5 m/s)
Visibility: 6 or more miles (10+ km)
Ceiling: at least 12,000 feet AGL
Clouds: few clouds at 2100 feet AGL
Weather: no significant weather observed at this time

METAR text: WAMM 270830Z 03003KT 360V150 9999 SCT021 31/23 Q1007 NOSIG
Conditions at: WAMM (MENADO/SAM RATUL, ID) observed 0830 UTC 27 October 2020
Temperature: 31.0°C (88°F)
Dewpoint: 23.0°C (73°F) [RH = 63%]
Pressure (altimeter): 29.73 inches Hg (1007.0 mb)
Winds: from the NNE (30 degrees) at 3 MPH (3 knots; 1.5 m/s)
Visibility: 6 or more miles (10+ km)
Ceiling: at least 12,000 feet AGL
Clouds: scattered clouds at 2100 feet AGL
Weather: no significant weather observed at this time

Forecast for: WAMM (MENADO/SAM RATUL, ID)
Text: TAF WAMM 270500Z 2706/2812 18012KT 9999 FEW021
Forecast period: 0600 to 1100 UTC 27 October 2020
Forecast type: FROM: standard forecast or significant change
Winds: from the S (180 degrees) at 14 MPH (12 knots; 6.2 m/s)
Visibility: 6 or more miles (10+ km)
Ceiling: at least 12,000 feet AGL
Clouds: few clouds at 2100 feet AGL
Weather: no significant weather forecast for this period
Text: BECMG 2711/2712 VRB02KT
Forecast period: 1100 UTC 27 October 2020 to 1200 UTC 28 October 2020
Forecast type: BECOMING: Conditions expected to become as follows by 1200 UTC 27 October 2020
Winds: variable direction winds at 2 MPH (2 knots; 1.0 m/s)
Visibility: 6 or more miles (10+ km)
Ceiling: at least 12,000 feet AGL
Clouds: few clouds at 2100 feet AGL
Weather: no significant weather forecast for this period

 MAPA DE AEROPUERTO

 INFORMACIÓN DE PISTA
Pista 18 Longitud 8693 ft Ancho 148 ft
Elevación 270 ft Umbral desplazado 0 ft Rumbo de pista 182
Pista 36 Longitud 8693 ft Ancho 148 ft
Elevación 264 ft Umbral desplazado 0 ft Rumbo de pista 2

 FRECUENCIAS DEL AEROPUERTO
Tipo APP Nombre MANADO APP Frecuencia 119 MHZ
Tipo ATIS Nombre ATIS Frecuencia 126.4 MHZ
Tipo INFO Nombre MANADO INF Frecuencia 891.8 MHZ
Tipo TWR Nombre RATULANGI Frecuencia 118.1 MHZ

 RADIO AYUDAS DEL AEROPUERTO
Tipo NDB Nombre Manado Frecuencia 255 KHZ
Tipo VOR-DME Nombre Manado Frecuencia 114200 KHZ
Tipo VOR-DME Nombre Manado Frecuencia 114800 KHZ
Tipo NDB Nombre Manado Frecuencia 290 KHZ



©2020 LAPA Virtual - Todos los derechos reservados.

VAM [v2.6.2] - Powered & Development by AccessPoint LLC